createdAt,value
2022-11-16T00:00:17.399Z,77.10
2022-11-16T00:01:19.923Z,77.28
2022-11-16T00:02:21.553Z,77.50
2022-11-16T00:03:23.576Z,77.58
2022-11-16T00:04:25.139Z,78.06
2022-11-16T00:05:28.672Z,78.29
2022-11-16T00:06:32.994Z,78.01
2022-11-16T00:07:34.586Z,77.92
2022-11-16T00:08:37.074Z,77.91
2022-11-16T00:09:44.617Z,77.89
2022-11-16T00:10:46.239Z,77.74
2022-11-16T00:11:57.059Z,77.73
2022-11-16T00:13:03.551Z,77.65
2022-11-16T00:14:05.154Z,77.63
2022-11-16T00:15:07.023Z,77.97
2022-11-16T00:16:08.826Z,77.81
2022-11-16T00:17:10.287Z,77.93
2022-11-16T00:18:11.784Z,77.53
2022-11-16T00:19:13.284Z,77.54
2022-11-16T00:20:14.924Z,77.36
2022-11-16T00:21:16.361Z,77.36
2022-11-16T00:22:17.897Z,77.70
2022-11-16T00:23:19.363Z,77.89
2022-11-16T00:24:22.481Z,77.78
2022-11-16T00:25:26.655Z,78.06
2022-11-16T00:26:28.112Z,78.18
2022-11-16T00:27:29.724Z,78.07
2022-11-16T00:28:31.450Z,77.95
2022-11-16T00:29:33.158Z,77.95
2022-11-16T00:30:34.680Z,77.86
2022-11-16T00:31:39.090Z,77.75
2022-11-16T00:32:48.664Z,77.48
2022-11-16T00:33:56.457Z,77.71
2022-11-16T00:34:57.949Z,77.69
2022-11-16T00:36:02.963Z,77.94
2022-11-16T00:37:04.436Z,78.04
2022-11-16T00:38:06.155Z,78.16
2022-11-16T00:39:07.715Z,78.42
2022-11-16T00:40:09.617Z,78.60
2022-11-16T00:41:13.183Z,78.49
2022-11-16T00:42:17.069Z,78.66
2022-11-16T00:43:19.293Z,78.57
2022-11-16T00:44:20.955Z,78.52
2022-11-16T00:45:22.491Z,78.29
2022-11-16T00:46:23.962Z,78.92
2022-11-16T00:47:26.541Z,78.90
2022-11-16T00:48:28.244Z,78.95
2022-11-16T00:49:32.676Z,78.67
2022-11-16T00:50:36.530Z,79.04
2022-11-16T00:51:38.620Z,79.43
2022-11-16T00:52:43.446Z,79.00
2022-11-16T00:53:47.412Z,79.01
2022-11-16T00:54:48.974Z,78.87
2022-11-16T00:55:53.532Z,78.99
2022-11-16T00:56:57.755Z,79.04
2022-11-16T00:58:07.749Z,79.33
2022-11-16T00:59:09.269Z,79.43
2022-11-16T01:00:11.337Z,79.17
2022-11-16T01:01:12.932Z,79.41
2022-11-16T01:02:21.804Z,79.31
2022-11-16T01:03:23.357Z,79.44
2022-11-16T01:04:24.811Z,79.62
2022-11-16T01:05:26.341Z,79.69
2022-11-16T01:06:30.769Z,79.64
2022-11-16T01:07:39.280Z,79.75
2022-11-16T01:08:40.823Z,80.02
2022-11-16T01:09:43.234Z,79.74
2022-11-16T01:10:50.618Z,79.60
2022-11-16T01:12:10.465Z,79.73
2022-11-16T01:13:12.446Z,79.64
2022-11-16T01:14:20.155Z,79.67
2022-11-16T01:15:22.358Z,79.81
2022-11-16T01:16:23.784Z,79.98
2022-11-16T01:17:27.534Z,79.75
2022-11-16T01:18:38.245Z,79.58
2022-11-16T01:19:39.735Z,79.46
2022-11-16T01:20:43.773Z,79.93
2022-11-16T01:21:45.299Z,79.77
2022-11-16T01:22:46.808Z,79.75
2022-11-16T01:23:48.291Z,79.92
2022-11-16T01:24:49.801Z,79.64
2022-11-16T01:26:11.823Z,79.38
2022-11-16T01:27:14.997Z,79.72
2022-11-16T01:28:19.265Z,79.73
2022-11-16T01:29:25.157Z,79.84
2022-11-16T01:30:31.286Z,80.17
2022-11-16T01:31:53.075Z,80.67
2022-11-16T01:32:54.552Z,80.59
2022-11-16T01:33:56.032Z,80.50
2022-11-16T01:35:01.121Z,80.49
2022-11-16T01:36:09.620Z,80.19
2022-11-16T01:37:11.362Z,80.09
2022-11-16T01:38:15.469Z,80.37
2022-11-16T01:39:16.940Z,80.59
2022-11-16T01:40:23.819Z,80.60
2022-11-16T01:41:25.557Z,80.51
2022-11-16T01:42:30.556Z,80.51
2022-11-16T01:43:49.116Z,80.45
2022-11-16T01:44:50.775Z,80.38
2022-11-16T01:45:53.416Z,80.80
2022-11-16T01:47:01.144Z,81.27
2022-11-16T01:48:09.515Z,81.11
2022-11-16T01:49:12.313Z,81.15
2022-11-16T01:50:14.782Z,81.32
2022-11-16T01:51:19.324Z,81.14
2022-11-16T01:52:23.063Z,81.05
2022-11-16T01:53:32.305Z,80.99
2022-11-16T01:54:38.854Z,81.03
2022-11-16T01:55:41.957Z,81.13
2022-11-16T01:57:00.440Z,80.76
2022-11-16T01:58:21.017Z,80.54
2022-11-16T01:59:30.035Z,80.79
2022-11-16T02:00:32.323Z,80.75
2022-11-16T02:01:51.437Z,80.91
2022-11-16T02:02:53.995Z,81.59
2022-11-16T02:04:21.698Z,81.57
2022-11-16T02:05:30.936Z,81.78
2022-11-16T02:06:37.411Z,81.59
2022-11-16T02:08:22.982Z,82.20
2022-11-16T02:10:02.366Z,81.98
2022-11-16T02:11:17.305Z,82.19
2022-11-16T02:12:39.068Z,81.96
2022-11-16T02:13:48.181Z,82.34
2022-11-16T02:14:49.799Z,83.15
2022-11-16T02:16:01.869Z,82.78
2022-11-16T02:17:13.755Z,82.42
2022-11-16T02:18:16.254Z,82.47
2022-11-16T02:19:25.461Z,82.26
2022-11-16T02:20:45.478Z,81.79
2022-11-16T02:21:51.082Z,81.87
2022-11-16T02:23:10.955Z,81.43
2022-11-16T02:24:19.857Z,81.63
2022-11-16T02:25:39.911Z,81.68
2022-11-16T02:27:01.168Z,81.61
2022-11-16T02:28:03.183Z,81.75
2022-11-16T02:29:19.634Z,82.02
2022-11-16T02:30:21.169Z,81.80
2022-11-16T02:31:27.480Z,82.64
2022-11-16T02:32:36.585Z,83.22
2022-11-16T02:33:41.144Z,83.49
2022-11-16T02:34:50.478Z,83.52
2022-11-16T02:35:57.596Z,84.32
2022-11-16T02:37:01.775Z,84.76
2022-11-16T02:38:05.235Z,84.48
2022-11-16T02:39:15.339Z,84.57
2022-11-16T02:40:17.551Z,84.67
2022-11-16T02:41:19.975Z,84.24
2022-11-16T02:42:32.977Z,84.55
2022-11-16T02:43:36.131Z,84.56
2022-11-16T02:44:39.186Z,84.10
2022-11-16T02:45:44.193Z,84.55
2022-11-16T02:46:48.800Z,84.60
2022-11-16T02:47:50.735Z,84.56
2022-11-16T02:48:56.274Z,84.29
2022-11-16T02:50:02.353Z,84.43
2022-11-16T02:51:19.110Z,84.82
2022-11-16T02:52:24.420Z,84.72
2022-11-16T02:53:26.009Z,84.25
2022-11-16T02:54:31.846Z,84.12
2022-11-16T02:55:33.785Z,83.99
2022-11-16T02:56:42.295Z,84.41
2022-11-16T02:57:47.500Z,84.52
2022-11-16T02:58:49.023Z,84.39
2022-11-16T02:59:55.519Z,84.53
2022-11-16T03:00:57.363Z,84.10
2022-11-16T03:02:12.204Z,83.90
2022-11-16T03:03:33.952Z,83.95
2022-11-16T03:04:45.647Z,83.34
2022-11-16T03:05:47.106Z,83.01
2022-11-16T03:06:48.764Z,82.65
2022-11-16T03:08:25.748Z,83.11
2022-11-16T03:09:27.905Z,83.22
2022-11-16T03:10:48.056Z,82.86
2022-11-16T03:12:08.778Z,82.64
2022-11-16T03:13:10.668Z,82.45
2022-11-16T03:14:14.512Z,82.35
2022-11-16T03:15:19.353Z,82.32
2022-11-16T03:16:22.350Z,82.26
2022-11-16T03:17:29.853Z,81.92
2022-11-16T03:18:41.100Z,81.67
2022-11-16T03:19:51.989Z,81.71
2022-11-16T03:21:06.596Z,81.59
2022-11-16T03:22:11.366Z,81.56
2022-11-16T03:23:27.624Z,81.58
2022-11-16T03:24:29.176Z,81.41
2022-11-16T03:25:31.593Z,81.65
2022-11-16T03:26:55.219Z,82.33
2022-11-16T03:28:19.075Z,82.12
2022-11-16T03:29:23.680Z,82.09
2022-11-16T03:30:27.227Z,82.03
2022-11-16T03:31:35.854Z,81.94
2022-11-16T03:32:42.987Z,82.34
2022-11-16T03:33:51.425Z,82.21
2022-11-16T03:34:56.315Z,82.34
2022-11-16T03:36:02.055Z,82.55
2022-11-16T03:37:10.163Z,82.33
2022-11-16T03:38:11.619Z,82.55
2022-11-16T03:39:28.668Z,82.42
2022-11-16T03:40:30.908Z,82.10
2022-11-16T03:41:33.046Z,82.26
2022-11-16T03:42:34.619Z,82.01
2022-11-16T03:43:38.612Z,82.10
2022-11-16T03:44:40.192Z,81.92
2022-11-16T03:45:43.234Z,81.66
2022-11-16T03:46:53.817Z,81.39
2022-11-16T03:48:00.383Z,81.72
2022-11-16T03:49:02.017Z,82.04
2022-11-16T03:50:08.309Z,82.09
2022-11-16T03:51:10.012Z,82.04
2022-11-16T03:52:26.403Z,81.80
2022-11-16T03:53:28.354Z,81.38
2022-11-16T03:54:32.903Z,81.88
2022-11-16T03:55:37.387Z,82.20
2022-11-16T03:56:38.845Z,82.05
2022-11-16T03:57:41.384Z,82.04
2022-11-16T03:58:42.987Z,81.93
2022-11-16T03:59:45.908Z,81.83
2022-11-16T04:01:00.178Z,82.37
2022-11-16T04:02:03.098Z,82.89
2022-11-16T04:03:05.996Z,83.05
2022-11-16T04:04:30.391Z,83.36
2022-11-16T04:05:53.991Z,83.39
2022-11-16T04:08:53.225Z,83.28
2022-11-16T04:10:13.144Z,83.27
2022-11-16T04:13:21.411Z,82.92
2022-11-16T04:14:48.292Z,82.89
2022-11-16T04:18:28.271Z,82.59
2022-11-16T04:19:58.320Z,82.23
2022-11-16T04:21:26.588Z,82.44
2022-11-16T04:22:57.309Z,82.50
2022-11-16T04:24:20.609Z,82.21
2022-11-16T04:25:23.630Z,82.28
2022-11-16T04:26:47.995Z,82.31
2022-11-16T04:28:10.222Z,82.46
2022-11-16T04:29:16.380Z,82.31
2022-11-16T04:30:19.415Z,82.59
2022-11-16T04:31:39.880Z,82.96
2022-11-16T04:33:02.838Z,83.14
2022-11-16T04:34:25.289Z,82.82
2022-11-16T04:35:48.624Z,82.42
2022-11-16T04:37:30.639Z,82.19
2022-11-16T04:38:35.203Z,82.22
2022-11-16T04:39:37.750Z,82.28
2022-11-16T04:40:40.282Z,82.37
2022-11-16T04:42:12.111Z,82.47
2022-11-16T04:43:16.465Z,82.56
2022-11-16T04:44:29.787Z,82.63
2022-11-16T04:45:56.264Z,83.06
2022-11-16T04:47:07.513Z,82.98
2022-11-16T04:48:18.758Z,82.88
2022-11-16T04:49:26.526Z,83.22
2022-11-16T04:50:30.405Z,83.01
2022-11-16T04:51:33.366Z,83.11
2022-11-16T04:52:36.165Z,82.68
2022-11-16T04:53:39.095Z,82.69
2022-11-16T04:54:55.453Z,82.53
2022-11-16T04:56:03.101Z,82.74
2022-11-16T04:58:23.640Z,82.93
2022-11-16T04:59:27.833Z,82.93
2022-11-16T05:00:32.406Z,82.81
2022-11-16T05:02:00.526Z,83.08
2022-11-16T05:03:03.601Z,82.66
2022-11-16T05:04:12.531Z,82.83
2022-11-16T05:05:14.357Z,83.20
2022-11-16T05:06:20.585Z,83.27
2022-11-16T05:07:23.017Z,83.46
2022-11-16T05:09:46.416Z,84.06
2022-11-16T05:10:52.549Z,84.09
2022-11-16T05:11:54.579Z,83.63
2022-11-16T05:13:09.804Z,83.37
2022-11-16T05:14:11.347Z,82.94
2022-11-16T05:15:19.731Z,82.83
2022-11-16T05:16:26.663Z,82.88
2022-11-16T05:17:28.173Z,82.91
2022-11-16T05:18:37.804Z,82.88
2022-11-16T05:20:02.141Z,83.09
2022-11-16T05:21:07.997Z,82.97
2022-11-16T05:22:12.409Z,83.07
2022-11-16T05:23:33.853Z,83.06
2022-11-16T05:24:42.431Z,82.86
2022-11-16T05:25:43.950Z,82.99
2022-11-16T05:26:46.427Z,83.10
2022-11-16T05:27:56.194Z,82.91
2022-11-16T05:29:03.074Z,82.93
2022-11-16T05:30:05.247Z,83.09
2022-11-16T05:31:09.944Z,82.69
2022-11-16T05:32:11.967Z,82.80
2022-11-16T05:33:16.447Z,82.86
2022-11-16T05:34:18.081Z,82.84
2022-11-16T05:35:20.313Z,82.83
2022-11-16T05:36:29.890Z,83.18
2022-11-16T05:37:31.694Z,82.90
2022-11-16T05:38:33.586Z,83.28
2022-11-16T05:39:41.642Z,83.46
2022-11-16T05:40:44.476Z,83.44
2022-11-16T05:41:46.369Z,83.67
2022-11-16T05:42:49.422Z,83.63
2022-11-16T05:43:52.532Z,83.26
2022-11-16T05:46:14.354Z,83.33
2022-11-16T05:47:18.870Z,82.96
2022-11-16T05:48:20.487Z,83.24
2022-11-16T05:49:23.173Z,82.96
2022-11-16T05:50:39.875Z,83.48
2022-11-16T05:51:54.565Z,83.18
2022-11-16T05:53:00.146Z,82.70
2022-11-16T05:54:01.968Z,82.52
2022-11-16T05:55:03.589Z,82.30
2022-11-16T05:56:08.493Z,82.25
2022-11-16T05:57:13.427Z,82.23
2022-11-16T05:58:14.872Z,82.15
2022-11-16T05:59:24.747Z,82.04
2022-11-16T06:00:36.534Z,81.89
2022-11-16T06:01:41.019Z,82.02
2022-11-16T06:02:46.020Z,81.94
2022-11-16T06:03:55.154Z,81.67
2022-11-16T06:04:56.808Z,81.65
2022-11-16T06:05:58.349Z,81.77
2022-11-16T06:07:01.973Z,81.61
2022-11-16T06:08:07.155Z,81.27
2022-11-16T06:09:09.418Z,81.01
2022-11-16T06:10:12.119Z,81.03
2022-11-16T06:11:17.861Z,80.82
2022-11-16T06:12:19.869Z,80.47
2022-11-16T06:13:35.113Z,80.65
2022-11-16T06:14:40.475Z,80.64
2022-11-16T06:16:59.620Z,80.98
2022-11-16T06:18:01.117Z,81.03
2022-11-16T06:19:02.646Z,81.07
2022-11-16T06:20:04.271Z,80.95
2022-11-16T06:21:06.117Z,80.89
2022-11-16T06:22:07.678Z,80.94
2022-11-16T06:23:09.287Z,80.95
2022-11-16T06:24:11.186Z,80.94
2022-11-16T06:25:12.680Z,80.87
2022-11-16T06:26:17.394Z,80.77
2022-11-16T06:27:25.581Z,80.96
2022-11-16T06:28:27.228Z,80.62
2022-11-16T06:29:32.310Z,81.27
2022-11-16T06:30:34.578Z,81.22
2022-11-16T06:31:43.105Z,81.68
2022-11-16T06:32:47.783Z,81.50
2022-11-16T06:33:57.082Z,81.48
2022-11-16T06:35:01.073Z,81.31
2022-11-16T06:36:05.904Z,81.51
2022-11-16T06:37:13.146Z,81.42
2022-11-16T06:38:18.705Z,81.19
2022-11-16T06:39:22.458Z,81.17
2022-11-16T06:40:26.622Z,81.11
2022-11-16T06:41:30.497Z,80.87
2022-11-16T06:42:35.923Z,80.64
2022-11-16T06:43:37.635Z,80.46
2022-11-16T06:44:39.726Z,80.51
2022-11-16T06:45:43.281Z,80.47
2022-11-16T06:46:45.451Z,80.63
2022-11-16T06:47:56.111Z,80.68
2022-11-16T06:49:00.982Z,80.52
2022-11-16T06:50:02.575Z,80.59
2022-11-16T06:51:07.275Z,80.55
2022-11-16T06:52:09.165Z,80.30
2022-11-16T06:53:10.815Z,80.47
2022-11-16T06:54:15.279Z,80.66
2022-11-16T06:55:17.501Z,80.50
2022-11-16T06:56:22.079Z,80.35
2022-11-16T06:57:28.679Z,80.59
2022-11-16T06:58:33.854Z,80.39
2022-11-16T06:59:35.657Z,79.72
2022-11-16T07:00:40.082Z,79.67
2022-11-16T07:02:08.524Z,79.87
2022-11-16T07:03:11.647Z,79.92
2022-11-16T07:04:20.026Z,79.49
2022-11-16T07:05:27.630Z,79.65
2022-11-16T07:06:29.610Z,79.55
2022-11-16T07:07:32.720Z,79.44
2022-11-16T07:10:04.881Z,79.06
2022-11-16T07:11:07.047Z,79.17
2022-11-16T07:12:09.036Z,79.02
2022-11-16T07:13:13.547Z,78.83
2022-11-16T07:14:15.038Z,78.80
2022-11-16T07:15:20.032Z,78.36
2022-11-16T07:16:22.778Z,78.30
2022-11-16T07:17:33.721Z,78.23
2022-11-16T07:18:35.911Z,78.10
2022-11-16T07:19:37.922Z,77.78
2022-11-16T07:20:43.379Z,77.81
2022-11-16T07:21:44.904Z,77.67
2022-11-16T07:22:59.120Z,77.71
2022-11-16T07:24:00.625Z,77.29
2022-11-16T07:25:02.291Z,76.97
2022-11-16T07:26:06.467Z,77.37
2022-11-16T07:27:20.482Z,77.12
2022-11-16T07:28:24.774Z,77.21
2022-11-16T07:29:26.393Z,77.01
2022-11-16T07:31:06.971Z,76.87
2022-11-16T07:32:08.602Z,76.65
2022-11-16T07:34:08.654Z,76.52
2022-11-16T07:36:06.198Z,75.86
2022-11-16T07:38:03.762Z,76.28
2022-11-16T07:40:18.442Z,75.85
2022-11-16T07:41:49.605Z,75.67
2022-11-16T07:43:00.903Z,75.31
2022-11-16T07:44:20.905Z,74.95
2022-11-16T07:45:36.503Z,75.59
2022-11-16T07:46:46.930Z,75.76
2022-11-16T07:47:52.376Z,75.40
2022-11-16T07:49:16.283Z,75.55
2022-11-16T07:50:33.610Z,74.85
2022-11-16T07:51:47.227Z,74.74
2022-11-16T07:53:07.831Z,74.90
2022-11-16T07:54:13.106Z,75.21
2022-11-16T07:55:14.677Z,75.44
2022-11-16T07:56:16.658Z,75.33
2022-11-16T07:57:21.802Z,75.45
2022-11-16T07:58:24.494Z,75.52
2022-11-16T07:59:28.402Z,75.60
2022-11-16T08:00:32.938Z,74.90
2022-11-16T08:01:43.519Z,75.43
2022-11-16T08:02:46.510Z,75.18
2022-11-16T08:03:53.554Z,75.15
2022-11-16T08:05:02.266Z,75.60
2022-11-16T08:06:05.098Z,75.75
2022-11-16T08:07:06.785Z,75.70
2022-11-16T08:08:12.907Z,75.43
2022-11-16T08:09:15.433Z,74.66
2022-11-16T08:10:17.711Z,74.86
2022-11-16T08:11:27.905Z,74.87
2022-11-16T08:12:32.727Z,75.09
2022-11-16T08:13:37.178Z,74.62
2022-11-16T08:14:41.655Z,75.09
2022-11-16T08:15:49.005Z,75.19
2022-11-16T08:16:58.670Z,75.20
2022-11-16T08:18:00.191Z,75.02
2022-11-16T08:19:02.738Z,75.19
2022-11-16T08:20:04.397Z,75.56
2022-11-16T08:21:06.522Z,75.83
2022-11-16T08:22:08.297Z,75.80
2022-11-16T08:23:10.265Z,75.65
2022-11-16T08:24:19.366Z,75.01
2022-11-16T08:25:28.711Z,75.16
2022-11-16T08:26:32.822Z,75.09
2022-11-16T08:27:43.583Z,75.27
2022-11-16T08:28:50.943Z,75.13
2022-11-16T08:30:00.670Z,75.32
2022-11-16T08:31:21.134Z,75.63
2022-11-16T08:32:29.771Z,75.68
2022-11-16T08:33:31.397Z,75.36
2022-11-16T08:34:36.459Z,75.03
2022-11-16T08:35:57.246Z,74.85
2022-11-16T08:37:01.877Z,74.54
2022-11-16T08:38:12.292Z,75.30
2022-11-16T08:39:14.374Z,74.72
2022-11-16T08:40:18.224Z,75.10
2022-11-16T08:41:22.540Z,75.13
2022-11-16T08:42:25.568Z,74.39
2022-11-16T08:43:31.051Z,73.95
2022-11-16T08:44:32.544Z,74.01
2022-11-16T08:45:38.164Z,73.45
2022-11-16T08:46:49.649Z,73.32
2022-11-16T08:48:12.895Z,74.27
2022-11-16T08:49:16.933Z,73.64
2022-11-16T08:50:18.804Z,72.61
2022-11-16T08:51:23.339Z,71.75
2022-11-16T08:52:33.760Z,70.58
2022-11-16T08:54:04.148Z,69.82
2022-11-16T08:55:32.442Z,70.87
2022-11-16T08:56:41.642Z,71.01
2022-11-16T08:57:47.176Z,71.04
2022-11-16T08:58:58.171Z,71.13
2022-11-16T09:00:00.650Z,70.86
2022-11-16T09:01:10.914Z,70.79
2022-11-16T09:02:15.505Z,70.30
2022-11-16T09:03:17.906Z,69.81
2022-11-16T09:04:31.512Z,70.24
2022-11-16T09:05:38.344Z,69.19
2022-11-16T09:06:39.831Z,68.93
2022-11-16T09:07:43.427Z,68.53
2022-11-16T09:08:46.102Z,69.49
2022-11-16T09:09:47.769Z,68.90
2022-11-16T09:11:03.936Z,68.71
2022-11-16T09:12:05.738Z,69.38
2022-11-16T09:13:10.030Z,69.17
2022-11-16T09:14:11.648Z,69.03
2022-11-16T09:15:16.356Z,68.80
2022-11-16T09:16:17.908Z,68.22
2022-11-16T09:17:34.794Z,68.13
2022-11-16T09:18:39.553Z,68.70
2022-11-16T09:19:41.048Z,68.58
2022-11-16T09:22:02.609Z,67.72
2022-11-16T09:23:07.200Z,67.11
2022-11-16T09:24:11.070Z,67.28
2022-11-16T09:25:12.682Z,67.26
2022-11-16T09:26:14.569Z,67.86
2022-11-16T09:27:16.882Z,67.41
2022-11-16T09:28:18.654Z,68.18
2022-11-16T09:29:20.288Z,67.69
2022-11-16T09:30:49.869Z,68.14
2022-11-16T09:32:00.103Z,66.82
2022-11-16T09:33:01.691Z,67.58
2022-11-16T09:34:03.463Z,68.10
2022-11-16T09:35:10.561Z,68.28
2022-11-16T09:36:12.055Z,68.91
2022-11-16T09:37:16.108Z,69.32
2022-11-16T09:38:24.160Z,69.05
2022-11-16T09:39:41.625Z,69.58
2022-11-16T09:40:44.846Z,68.64
2022-11-16T09:41:55.511Z,68.24
2022-11-16T09:43:03.384Z,68.10
2022-11-16T09:44:04.837Z,68.69
2022-11-16T09:45:08.461Z,68.94
2022-11-16T09:46:28.867Z,69.03
2022-11-16T09:47:46.050Z,68.83
2022-11-16T09:48:47.570Z,69.26
2022-11-16T09:51:17.214Z,69.24
2022-11-16T09:52:40.127Z,69.22
2022-11-16T09:54:01.997Z,68.92
2022-11-16T09:55:19.806Z,69.24
2022-11-16T09:56:35.346Z,68.47
2022-11-16T09:57:38.548Z,68.92
2022-11-16T09:58:44.315Z,68.96
2022-11-16T09:59:58.915Z,68.56
2022-11-16T10:01:06.409Z,68.51
2022-11-16T10:02:26.645Z,68.83
2022-11-16T10:03:28.850Z,69.32
2022-11-16T10:04:57.737Z,68.87
2022-11-16T10:06:06.227Z,69.07
2022-11-16T10:07:26.874Z,68.62
2022-11-16T10:08:34.951Z,68.58
2022-11-16T10:09:46.626Z,69.12
2022-11-16T10:11:13.318Z,69.67
2022-11-16T10:12:20.422Z,69.51
2022-11-16T10:13:34.144Z,69.82
2022-11-16T10:14:42.741Z,69.94
2022-11-16T10:16:05.345Z,69.74
2022-11-16T10:17:14.730Z,70.19
2022-11-16T10:18:21.346Z,70.13
2022-11-16T10:19:34.884Z,70.19
2022-11-16T10:20:57.505Z,69.92
2022-11-16T10:22:03.618Z,69.81
2022-11-16T10:23:20.205Z,69.88
2022-11-16T10:24:51.091Z,69.89
2022-11-16T10:25:55.583Z,69.36
2022-11-16T10:27:20.753Z,69.32
2022-11-16T10:28:42.615Z,69.83
2022-11-16T10:30:14.218Z,70.04
2022-11-16T10:31:18.794Z,69.63
2022-11-16T10:32:29.827Z,69.57
2022-11-16T10:33:42.350Z,69.56
2022-11-16T10:35:02.777Z,70.00
2022-11-16T10:36:19.405Z,70.18
2022-11-16T10:37:21.304Z,70.61
2022-11-16T10:38:25.652Z,70.20
2022-11-16T10:39:27.506Z,69.11
2022-11-16T10:40:41.324Z,68.71
2022-11-16T10:41:45.571Z,68.86
2022-11-16T10:42:48.871Z,68.43
2022-11-16T10:43:50.323Z,67.88
2022-11-16T10:45:15.176Z,68.36
2022-11-16T10:46:22.280Z,67.41
2022-11-16T10:49:00.813Z,67.95
2022-11-16T10:50:48.748Z,67.94
2022-11-16T10:51:56.371Z,68.07
2022-11-16T10:53:01.697Z,67.75
2022-11-16T10:54:04.612Z,67.88
2022-11-16T10:55:07.817Z,67.46
2022-11-16T10:56:32.472Z,67.34
2022-11-16T10:57:52.736Z,67.80
2022-11-16T10:58:58.462Z,68.03
2022-11-16T11:00:03.376Z,68.22
2022-11-16T11:01:04.984Z,67.94
2022-11-16T11:02:25.025Z,68.08
2022-11-16T11:03:30.201Z,68.53
2022-11-16T11:06:13.861Z,67.77
2022-11-16T11:07:36.615Z,68.12
2022-11-16T11:08:41.874Z,68.10
2022-11-16T11:09:43.632Z,67.90
2022-11-16T11:10:53.076Z,68.32
2022-11-16T11:12:35.948Z,68.51
2022-11-16T11:13:38.081Z,67.60
2022-11-16T11:14:42.531Z,67.58
2022-11-16T11:15:44.577Z,68.04
2022-11-16T11:16:52.678Z,67.91
2022-11-16T11:18:14.410Z,67.52
2022-11-16T11:19:28.482Z,66.48
2022-11-16T11:20:31.631Z,66.26
2022-11-16T11:21:38.514Z,65.62
2022-11-16T11:22:53.325Z,65.23
2022-11-16T11:24:10.883Z,65.12
2022-11-16T11:25:22.111Z,64.73
2022-11-16T11:26:36.177Z,64.77
2022-11-16T11:27:38.349Z,64.35
2022-11-16T11:28:44.752Z,63.86
2022-11-16T11:29:47.191Z,64.66
2022-11-16T11:31:07.119Z,65.21
2022-11-16T11:32:13.479Z,65.19
2022-11-16T11:33:15.347Z,63.99
2022-11-16T11:34:27.659Z,63.83
2022-11-16T11:36:09.677Z,64.57
2022-11-16T11:37:31.146Z,64.33
2022-11-16T11:38:33.336Z,64.23
2022-11-16T11:39:37.627Z,63.60
2022-11-16T11:40:41.306Z,63.83
2022-11-16T11:41:43.241Z,63.67
2022-11-16T11:42:54.951Z,63.54
2022-11-16T11:44:05.870Z,64.36
2022-11-16T11:45:07.915Z,64.38
2022-11-16T11:46:16.510Z,65.34
2022-11-16T11:49:01.554Z,64.38
2022-11-16T11:50:22.140Z,63.46
2022-11-16T11:51:40.575Z,64.10
2022-11-16T11:53:05.253Z,64.16
2022-11-16T11:54:07.054Z,63.50
2022-11-16T11:55:08.773Z,64.42
2022-11-16T11:56:10.517Z,65.15
2022-11-16T11:57:12.731Z,64.29
2022-11-16T11:58:22.552Z,64.59
2022-11-16T11:59:33.167Z,64.43
2022-11-16T12:00:37.462Z,63.55
2022-11-16T12:01:57.749Z,62.79
2022-11-16T12:03:17.840Z,62.29
2022-11-16T12:04:21.349Z,62.69
2022-11-16T12:05:40.957Z,62.33
2022-11-16T12:06:44.068Z,62.71
2022-11-16T12:07:49.820Z,63.20
2022-11-16T12:09:07.378Z,62.29
2022-11-16T12:10:28.625Z,62.32
2022-11-16T12:11:52.241Z,61.38
2022-11-16T12:13:02.441Z,62.19
2022-11-16T12:14:07.815Z,62.64
2022-11-16T12:15:24.354Z,62.82
2022-11-16T12:16:42.450Z,62.94
2022-11-16T12:17:55.272Z,62.42
2022-11-16T12:18:59.285Z,61.91
2022-11-16T12:20:21.653Z,62.26
2022-11-16T12:21:42.166Z,62.89
2022-11-16T12:22:46.680Z,62.74
2022-11-16T12:24:09.430Z,62.59
2022-11-16T12:25:10.921Z,62.48
2022-11-16T12:26:28.436Z,62.08
2022-11-16T12:27:41.339Z,61.96
2022-11-16T12:28:44.981Z,61.87
2022-11-16T12:29:55.904Z,61.97
2022-11-16T12:31:23.511Z,60.71
2022-11-16T12:32:30.991Z,60.80
2022-11-16T12:33:51.360Z,61.14
2022-11-16T12:35:31.255Z,60.16
2022-11-16T12:36:38.674Z,60.36
2022-11-16T12:39:09.817Z,60.83
2022-11-16T12:40:33.817Z,61.45
2022-11-16T12:41:35.932Z,60.97
2022-11-16T12:43:00.559Z,61.48
2022-11-16T12:44:12.565Z,61.84
2022-11-16T12:45:30.559Z,61.93
2022-11-16T12:46:55.608Z,61.65
2022-11-16T12:48:03.115Z,60.60
2022-11-16T12:49:16.516Z,61.01
2022-11-16T12:50:37.462Z,62.10
2022-11-16T12:51:45.362Z,62.06
2022-11-16T12:53:03.535Z,60.87
2022-11-16T12:54:11.671Z,61.04
2022-11-16T12:55:32.011Z,60.43
2022-11-16T12:56:49.064Z,59.88
2022-11-16T12:58:04.874Z,60.09
2022-11-16T12:59:06.902Z,60.78
2022-11-16T13:00:08.565Z,60.31
2022-11-16T13:01:29.958Z,60.99
2022-11-16T13:02:43.711Z,61.65
2022-11-16T13:03:49.872Z,62.42
2022-11-16T13:05:12.850Z,62.85
2022-11-16T13:06:21.215Z,61.06
2022-11-16T13:07:29.152Z,60.21
2022-11-16T13:08:40.071Z,59.97
2022-11-16T13:09:48.748Z,59.71
2022-11-16T13:10:50.791Z,60.58
2022-11-16T13:11:52.926Z,60.61
2022-11-16T13:13:22.004Z,60.02
2022-11-16T13:14:22.140Z,58.25
2022-11-16T13:15:24.960Z,58.59
2022-11-16T13:16:27.012Z,59.38
2022-11-16T13:17:36.798Z,59.08
2022-11-16T13:20:23.725Z,59.62
2022-11-16T13:21:46.334Z,58.58
2022-11-16T13:23:17.145Z,59.15
2022-11-16T13:24:37.998Z,59.06
2022-11-16T13:25:48.181Z,59.03
2022-11-16T13:27:05.490Z,58.49
2022-11-16T13:28:13.044Z,58.87
2022-11-16T13:29:17.118Z,58.96
2022-11-16T13:30:22.307Z,58.98
2022-11-16T13:31:23.739Z,58.88
2022-11-16T13:32:37.563Z,58.75
2022-11-16T13:33:50.653Z,58.70
2022-11-16T13:34:52.662Z,58.52
2022-11-16T13:35:54.856Z,58.43
2022-11-16T13:37:01.520Z,58.54
2022-11-16T13:38:02.986Z,58.54
2022-11-16T13:39:23.293Z,58.71
2022-11-16T13:40:27.421Z,58.80
2022-11-16T13:41:36.390Z,58.91
2022-11-16T13:43:14.085Z,58.65
2022-11-16T13:44:21.251Z,58.67
2022-11-16T13:45:23.859Z,58.88
2022-11-16T13:46:57.673Z,59.01
2022-11-16T13:47:58.202Z,58.85
2022-11-16T13:48:59.682Z,58.91
2022-11-16T13:50:01.803Z,59.14
2022-11-16T13:51:04.559Z,59.14
2022-11-16T13:52:35.434Z,58.91
2022-11-16T13:54:55.968Z,58.95
2022-11-16T13:56:16.915Z,58.99
2022-11-16T13:57:18.390Z,59.11
2022-11-16T13:58:23.048Z,58.94
2022-11-16T13:59:28.629Z,59.31
2022-11-16T14:00:31.688Z,59.35
2022-11-16T14:01:53.155Z,59.51
2022-11-16T14:03:13.575Z,59.57
2022-11-16T14:04:33.600Z,59.39
2022-11-16T14:05:48.323Z,59.42
2022-11-16T14:06:49.818Z,59.45
2022-11-16T14:07:52.145Z,59.57
2022-11-16T14:08:56.885Z,59.63
2022-11-16T14:09:58.660Z,59.54
2022-11-16T14:11:00.863Z,59.82
2022-11-16T14:12:24.527Z,59.90
2022-11-16T14:13:38.318Z,59.92
2022-11-16T14:15:03.408Z,60.00
2022-11-16T14:16:29.227Z,59.99
2022-11-16T14:17:49.200Z,60.15
2022-11-16T14:18:53.647Z,60.39
2022-11-16T14:19:58.237Z,60.53
2022-11-16T14:21:05.702Z,60.66
2022-11-16T14:22:08.213Z,61.23
2022-11-16T14:23:12.245Z,61.31
2022-11-16T14:24:30.844Z,61.97
2022-11-16T14:25:47.079Z,61.58
2022-11-16T14:26:50.913Z,61.42
2022-11-16T14:28:19.732Z,61.15
2022-11-16T14:29:21.367Z,61.17
2022-11-16T14:30:23.775Z,61.06
2022-11-16T14:31:26.396Z,61.26
2022-11-16T14:32:31.463Z,61.35
2022-11-16T14:33:33.762Z,60.54
2022-11-16T14:34:42.435Z,59.10
2022-11-16T14:35:45.062Z,59.63
2022-11-16T14:36:46.760Z,58.14
2022-11-16T14:37:55.403Z,58.14
2022-11-16T14:38:57.754Z,58.64
2022-11-16T14:40:03.291Z,58.92
2022-11-16T14:41:05.684Z,59.17
2022-11-16T14:42:14.566Z,59.21
2022-11-16T14:43:18.472Z,57.42
2022-11-16T14:44:24.474Z,57.52
2022-11-16T14:45:29.541Z,57.36
2022-11-16T14:46:34.791Z,57.81
2022-11-16T14:47:39.197Z,57.90
2022-11-16T14:48:54.193Z,58.13
2022-11-16T14:50:00.775Z,58.15
2022-11-16T14:51:02.225Z,58.32
2022-11-16T14:52:06.267Z,58.69
2022-11-16T14:53:07.823Z,58.50
2022-11-16T14:54:14.403Z,58.83
2022-11-16T14:55:23.125Z,58.73
2022-11-16T14:56:24.619Z,59.20
2022-11-16T14:57:26.099Z,59.48
2022-11-16T14:58:28.787Z,59.35
2022-11-16T14:59:30.541Z,59.03
2022-11-16T15:00:32.061Z,59.00
2022-11-16T15:01:34.250Z,59.12
2022-11-16T15:02:35.807Z,59.02
2022-11-16T15:03:56.147Z,59.41
2022-11-16T15:05:03.117Z,59.65
2022-11-16T15:06:04.702Z,59.91
2022-11-16T15:07:11.758Z,59.61
2022-11-16T15:08:17.889Z,59.24
2022-11-16T15:09:24.587Z,59.46